sensor_id;sensor_type;location;lat;lon;timestamp;temperature;humidity
17774;DHT22;9011;33.236;-97.118;2022-07-29T00:01:59;39.80;77.80
17774;DHT22;9011;33.236;-97.118;2022-07-29T00:04:28;40.00;77.80
17774;DHT22;9011;33.236;-97.118;2022-07-29T00:06:58;40.10;78.10
17774;DHT22;9011;33.236;-97.118;2022-07-29T00:09:26;40.10;77.70
17774;DHT22;9011;33.236;-97.118;2022-07-29T00:11:56;40.00;78.00
17774;DHT22;9011;33.236;-97.118;2022-07-29T00:14:25;40.10;78.20
17774;DHT22;9011;33.236;-97.118;2022-07-29T00:16:53;39.70;78.60
17774;DHT22;9011;33.236;-97.118;2022-07-29T00:19:22;39.80;78.00
17774;DHT22;9011;33.236;-97.118;2022-07-29T00:21:50;39.70;78.70
17774;DHT22;9011;33.236;-97.118;2022-07-29T00:24:20;39.50;78.40
17774;DHT22;9011;33.236;-97.118;2022-07-29T00:26:48;39.20;78.30
17774;DHT22;9011;33.236;-97.118;2022-07-29T00:29:17;39.10;79.00
17774;DHT22;9011;33.236;-97.118;2022-07-29T00:31:45;39.00;78.60
17774;DHT22;9011;33.236;-97.118;2022-07-29T00:34:13;38.80;78.70
17774;DHT22;9011;33.236;-97.118;2022-07-29T00:36:55;38.60;79.50
17774;DHT22;9011;33.236;-97.118;2022-07-29T00:39:25;38.50;79.30
17774;DHT22;9011;33.236;-97.118;2022-07-29T00:41:53;38.40;79.60
17774;DHT22;9011;33.236;-97.118;2022-07-29T00:44:21;38.40;79.50
17774;DHT22;9011;33.236;-97.118;2022-07-29T00:46:49;38.20;80.00
17774;DHT22;9011;33.236;-97.118;2022-07-29T00:49:18;38.30;79.90
17774;DHT22;9011;33.236;-97.118;2022-07-29T00:51:46;38.20;80.00
17774;DHT22;9011;33.236;-97.118;2022-07-29T00:54:16;38.20;79.60
17774;DHT22;9011;33.236;-97.118;2022-07-29T00:56:47;38.30;79.50
17774;DHT22;9011;33.236;-97.118;2022-07-29T00:59:15;38.10;79.60
17774;DHT22;9011;33.236;-97.118;2022-07-29T01:01:43;38.10;80.30
17774;DHT22;9011;33.236;-97.118;2022-07-29T01:04:12;38.20;79.80
17774;DHT22;9011;33.236;-97.118;2022-07-29T01:06:40;38.20;79.50
17774;DHT22;9011;33.236;-97.118;2022-07-29T01:09:09;38.20;79.80
17774;DHT22;9011;33.236;-97.118;2022-07-29T01:11:39;37.90;80.20
17774;DHT22;9011;33.236;-97.118;2022-07-29T01:14:10;37.90;80.10
17774;DHT22;9011;33.236;-97.118;2022-07-29T01:16:45;37.80;80.00
17774;DHT22;9011;33.236;-97.118;2022-07-29T01:19:33;37.90;80.10
17774;DHT22;9011;33.236;-97.118;2022-07-29T01:28:08;37.50;81.00
17774;DHT22;9011;33.236;-97.118;2022-07-29T01:30:42;37.30;81.90
17774;DHT22;9011;33.236;-97.118;2022-07-29T01:33:15;37.10;80.90
17774;DHT22;9011;33.236;-97.118;2022-07-29T01:35:59;37.20;81.10
17774;DHT22;9011;33.236;-97.118;2022-07-29T01:38:29;37.00;81.00
17774;DHT22;9011;33.236;-97.118;2022-07-29T01:41:03;37.10;81.20
17774;DHT22;9011;33.236;-97.118;2022-07-29T01:43:36;36.80;81.60
17774;DHT22;9011;33.236;-97.118;2022-07-29T01:46:11;37.00;81.50
17774;DHT22;9011;33.236;-97.118;2022-07-29T01:48:45;36.70;81.60
17774;DHT22;9011;33.236;-97.118;2022-07-29T01:51:18;36.70;82.10
17774;DHT22;9011;33.236;-97.118;2022-07-29T01:53:51;36.70;82.40
17774;DHT22;9011;33.236;-97.118;2022-07-29T01:56:23;36.60;82.30
17774;DHT22;9011;33.236;-97.118;2022-07-29T01:58:53;36.60;82.50
17774;DHT22;9011;33.236;-97.118;2022-07-29T02:01:24;36.40;82.80
17774;DHT22;9011;33.236;-97.118;2022-07-29T02:03:55;36.40;82.90
17774;DHT22;9011;33.236;-97.118;2022-07-29T02:06:26;36.30;82.90
17774;DHT22;9011;33.236;-97.118;2022-07-29T02:08:56;36.40;83.60
17774;DHT22;9011;33.236;-97.118;2022-07-29T02:11:27;36.30;83.50
17774;DHT22;9011;33.236;-97.118;2022-07-29T02:13:57;36.20;83.40
17774;DHT22;9011;33.236;-97.118;2022-07-29T02:16:30;36.00;84.00
17774;DHT22;9011;33.236;-97.118;2022-07-29T02:19:00;36.00;83.60
17774;DHT22;9011;33.236;-97.118;2022-07-29T02:21:30;36.10;83.60
17774;DHT22;9011;33.236;-97.118;2022-07-29T02:24:02;36.00;84.40
17774;DHT22;9011;33.236;-97.118;2022-07-29T02:26:32;35.90;84.00
17774;DHT22;9011;33.236;-97.118;2022-07-29T02:29:02;35.90;84.00
17774;DHT22;9011;33.236;-97.118;2022-07-29T02:31:34;35.90;84.30
17774;DHT22;9011;33.236;-97.118;2022-07-29T02:34:06;35.90;84.40
17774;DHT22;9011;33.236;-97.118;2022-07-29T02:36:35;35.90;84.50
17774;DHT22;9011;33.236;-97.118;2022-07-29T02:39:05;36.00;84.00
17774;DHT22;9011;33.236;-97.118;2022-07-29T02:41:40;35.90;84.50
17774;DHT22;9011;33.236;-97.118;2022-07-29T02:44:11;35.80;84.40
17774;DHT22;9011;33.236;-97.118;2022-07-29T02:46:46;35.70;84.50
17774;DHT22;9011;33.236;-97.118;2022-07-29T02:49:26;35.50;85.20
17774;DHT22;9011;33.236;-97.118;2022-07-29T02:51:59;35.40;85.30
17774;DHT22;9011;33.236;-97.118;2022-07-29T02:54:33;35.40;85.10
17774;DHT22;9011;33.236;-97.118;2022-07-29T02:57:11;35.50;85.20
17774;DHT22;9011;33.236;-97.118;2022-07-29T02:59:42;35.50;85.20
17774;DHT22;9011;33.236;-97.118;2022-07-29T03:02:15;35.30;85.30
17774;DHT22;9011;33.236;-97.118;2022-07-29T03:04:45;35.40;85.40
17774;DHT22;9011;33.236;-97.118;2022-07-29T03:07:16;35.30;85.40
17774;DHT22;9011;33.236;-97.118;2022-07-29T03:09:46;35.30;85.50
17774;DHT22;9011;33.236;-97.118;2022-07-29T03:12:15;35.30;85.70
17774;DHT22;9011;33.236;-97.118;2022-07-29T03:14:44;35.30;85.70
17774;DHT22;9011;33.236;-97.118;2022-07-29T03:17:14;35.20;86.20
17774;DHT22;9011;33.236;-97.118;2022-07-29T03:19:43;35.20;86.30
17774;DHT22;9011;33.236;-97.118;2022-07-29T03:22:12;35.10;86.10
17774;DHT22;9011;33.236;-97.118;2022-07-29T03:24:41;35.10;86.10
17774;DHT22;9011;33.236;-97.118;2022-07-29T03:27:09;35.00;86.10
17774;DHT22;9011;33.236;-97.118;2022-07-29T03:29:37;35.10;86.10
17774;DHT22;9011;33.236;-97.118;2022-07-29T03:32:06;35.10;86.20
17774;DHT22;9011;33.236;-97.118;2022-07-29T03:34:37;35.00;86.60
17774;DHT22;9011;33.236;-97.118;2022-07-29T03:37:06;35.10;86.30
17774;DHT22;9011;33.236;-97.118;2022-07-29T03:39:38;35.20;86.20
17774;DHT22;9011;33.236;-97.118;2022-07-29T03:42:10;35.20;86.10
17774;DHT22;9011;33.236;-97.118;2022-07-29T03:44:41;35.10;86.10
17774;DHT22;9011;33.236;-97.118;2022-07-29T03:47:10;35.00;86.40
17774;DHT22;9011;33.236;-97.118;2022-07-29T03:49:40;35.10;86.30
17774;DHT22;9011;33.236;-97.118;2022-07-29T03:52:10;35.00;86.60
17774;DHT22;9011;33.236;-97.118;2022-07-29T03:54:39;35.00;86.40
17774;DHT22;9011;33.236;-97.118;2022-07-29T03:57:07;35.00;86.60
17774;DHT22;9011;33.236;-97.118;2022-07-29T03:59:39;35.00;86.80
17774;DHT22;9011;33.236;-97.118;2022-07-29T04:02:11;34.90;87.20
17774;DHT22;9011;33.236;-97.118;2022-07-29T04:04:41;34.90;87.20
17774;DHT22;9011;33.236;-97.118;2022-07-29T04:07:11;34.80;87.20
17774;DHT22;9011;33.236;-97.118;2022-07-29T04:09:40;34.80;87.20
17774;DHT22;9011;33.236;-97.118;2022-07-29T04:12:09;34.80;87.20
17774;DHT22;9011;33.236;-97.118;2022-07-29T04:14:38;34.70;87.60
17774;DHT22;9011;33.236;-97.118;2022-07-29T04:17:06;34.70;87.60
17774;DHT22;9011;33.236;-97.118;2022-07-29T04:19:35;34.80;87.70
17774;DHT22;9011;33.236;-97.118;2022-07-29T04:22:04;34.50;88.10
17774;DHT22;9011;33.236;-97.118;2022-07-29T04:24:33;34.70;88.10
17774;DHT22;9011;33.236;-97.118;2022-07-29T04:27:02;34.60;88.00
17774;DHT22;9011;33.236;-97.118;2022-07-29T04:29:30;34.70;88.20
17774;DHT22;9011;33.236;-97.118;2022-07-29T04:31:58;34.60;88.30
17774;DHT22;9011;33.236;-97.118;2022-07-29T04:34:27;34.60;88.30
17774;DHT22;9011;33.236;-97.118;2022-07-29T04:36:55;34.60;88.40
17774;DHT22;9011;33.236;-97.118;2022-07-29T04:39:25;34.60;88.50
17774;DHT22;9011;33.236;-97.118;2022-07-29T04:41:54;34.60;88.60
17774;DHT22;9011;33.236;-97.118;2022-07-29T04:44:22;34.60;88.90
17774;DHT22;9011;33.236;-97.118;2022-07-29T04:46:50;34.60;89.10
17774;DHT22;9011;33.236;-97.118;2022-07-29T04:49:19;34.30;89.50
17774;DHT22;9011;33.236;-97.118;2022-07-29T04:51:47;34.40;89.80
17774;DHT22;9011;33.236;-97.118;2022-07-29T04:54:15;34.20;90.10
17774;DHT22;9011;33.236;-97.118;2022-07-29T04:56:45;34.20;90.30
17774;DHT22;9011;33.236;-97.118;2022-07-29T04:59:14;34.00;90.50
17774;DHT22;9011;33.236;-97.118;2022-07-29T05:01:42;33.90;90.60
17774;DHT22;9011;33.236;-97.118;2022-07-29T05:04:11;33.90;90.70
17774;DHT22;9011;33.236;-97.118;2022-07-29T05:06:39;33.70;91.00
17774;DHT22;9011;33.236;-97.118;2022-07-29T05:09:07;33.70;91.10
17774;DHT22;9011;33.236;-97.118;2022-07-29T05:11:35;33.60;91.30
17774;DHT22;9011;33.236;-97.118;2022-07-29T05:14:05;33.40;91.40
17774;DHT22;9011;33.236;-97.118;2022-07-29T05:16:33;33.40;91.50
17774;DHT22;9011;33.236;-97.118;2022-07-29T05:19:02;33.30;91.70
17774;DHT22;9011;33.236;-97.118;2022-07-29T05:21:30;33.20;91.90
17774;DHT22;9011;33.236;-97.118;2022-07-29T05:23:58;33.20;92.00
17774;DHT22;9011;33.236;-97.118;2022-07-29T05:26:27;33.20;92.20
17774;DHT22;9011;33.236;-97.118;2022-07-29T05:28:55;33.10;92.20
17774;DHT22;9011;33.236;-97.118;2022-07-29T05:31:25;33.10;92.30
17774;DHT22;9011;33.236;-97.118;2022-07-29T05:33:53;33.00;92.30
17774;DHT22;9011;33.236;-97.118;2022-07-29T05:36:22;33.00;92.40
17774;DHT22;9011;33.236;-97.118;2022-07-29T05:38:50;32.90;92.60
17774;DHT22;9011;33.236;-97.118;2022-07-29T05:41:18;32.80;92.50
17774;DHT22;9011;33.236;-97.118;2022-07-29T05:43:47;32.80;92.70
17774;DHT22;9011;33.236;-97.118;2022-07-29T05:46:15;32.80;92.90
17774;DHT22;9011;33.236;-97.118;2022-07-29T05:48:45;32.50;93.20
17774;DHT22;9011;33.236;-97.118;2022-07-29T05:51:13;32.50;93.10
17774;DHT22;9011;33.236;-97.118;2022-07-29T05:53:42;32.50;93.10
17774;DHT22;9011;33.236;-97.118;2022-07-29T05:56:11;32.40;93.20
17774;DHT22;9011;33.236;-97.118;2022-07-29T05:58:39;32.30;93.20
17774;DHT22;9011;33.236;-97.118;2022-07-29T06:01:07;32.30;93.20
17774;DHT22;9011;33.236;-97.118;2022-07-29T06:03:35;32.30;93.10
17774;DHT22;9011;33.236;-97.118;2022-07-29T06:06:07;32.40;93.10
17774;DHT22;9011;33.236;-97.118;2022-07-29T06:08:36;32.20;93.20
17774;DHT22;9011;33.236;-97.118;2022-07-29T06:11:05;32.40;93.30
17774;DHT22;9011;33.236;-97.118;2022-07-29T06:13:34;32.40;93.30
17774;DHT22;9011;33.236;-97.118;2022-07-29T06:16:02;32.40;93.40
17774;DHT22;9011;33.236;-97.118;2022-07-29T06:18:30;32.40;93.90
17774;DHT22;9011;33.236;-97.118;2022-07-29T06:20:59;32.50;93.60
17774;DHT22;9011;33.236;-97.118;2022-07-29T06:23:29;32.40;93.80
17774;DHT22;9011;33.236;-97.118;2022-07-29T06:25:57;32.40;93.90
17774;DHT22;9011;33.236;-97.118;2022-07-29T06:28:26;32.40;94.00
17774;DHT22;9011;33.236;-97.118;2022-07-29T06:30:54;32.50;94.20
17774;DHT22;9011;33.236;-97.118;2022-07-29T06:33:22;32.40;94.40
17774;DHT22;9011;33.236;-97.118;2022-07-29T06:35:51;32.50;94.60
17774;DHT22;9011;33.236;-97.118;2022-07-29T06:38:19;32.50;94.60
17774;DHT22;9011;33.236;-97.118;2022-07-29T06:40:49;32.40;95.00
17774;DHT22;9011;33.236;-97.118;2022-07-29T06:43:32;32.30;95.30
17774;DHT22;9011;33.236;-97.118;2022-07-29T06:46:04;32.30;95.50
17774;DHT22;9011;33.236;-97.118;2022-07-29T06:48:33;32.20;95.70
17774;DHT22;9011;33.236;-97.118;2022-07-29T06:51:03;32.30;95.80
17774;DHT22;9011;33.236;-97.118;2022-07-29T06:53:32;32.30;96.10
17774;DHT22;9011;33.236;-97.118;2022-07-29T06:56:02;32.10;96.50
17774;DHT22;9011;33.236;-97.118;2022-07-29T06:58:31;32.10;96.90
17774;DHT22;9011;33.236;-97.118;2022-07-29T07:01:02;32.00;97.20
17774;DHT22;9011;33.236;-97.118;2022-07-29T07:03:31;32.00;97.50
17774;DHT22;9011;33.236;-97.118;2022-07-29T07:05:59;32.00;97.70
17774;DHT22;9011;33.236;-97.118;2022-07-29T07:08:28;31.90;98.30
17774;DHT22;9011;33.236;-97.118;2022-07-29T07:10:56;31.80;98.30
17774;DHT22;9011;33.236;-97.118;2022-07-29T07:13:26;31.80;98.40
17774;DHT22;9011;33.236;-97.118;2022-07-29T07:15:57;31.90;98.60
17774;DHT22;9011;33.236;-97.118;2022-07-29T07:18:25;31.90;98.60
17774;DHT22;9011;33.236;-97.118;2022-07-29T07:20:54;31.80;99.00
17774;DHT22;9011;33.236;-97.118;2022-07-29T07:23:22;31.70;99.50
17774;DHT22;9011;33.236;-97.118;2022-07-29T07:25:51;31.50;99.80
17774;DHT22;9011;33.236;-97.118;2022-07-29T07:28:19;31.40;99.90
17774;DHT22;9011;33.236;-97.118;2022-07-29T07:30:49;31.40;99.90
17774;DHT22;9011;33.236;-97.118;2022-07-29T07:33:17;31.40;99.90
17774;DHT22;9011;33.236;-97.118;2022-07-29T07:35:46;31.40;99.90
17774;DHT22;9011;33.236;-97.118;2022-07-29T07:38:14;31.20;99.90
17774;DHT22;9011;33.236;-97.118;2022-07-29T07:40:42;31.20;99.90
17774;DHT22;9011;33.236;-97.118;2022-07-29T07:43:12;31.30;99.90
17774;DHT22;9011;33.236;-97.118;2022-07-29T07:45:40;31.30;99.90
17774;DHT22;9011;33.236;-97.118;2022-07-29T07:48:10;31.40;99.90
17774;DHT22;9011;33.236;-97.118;2022-07-29T07:50:38;31.30;99.90
17774;DHT22;9011;33.236;-97.118;2022-07-29T07:53:07;31.40;99.90
17774;DHT22;9011;33.236;-97.118;2022-07-29T07:55:39;31.30;99.90
17774;DHT22;9011;33.236;-97.118;2022-07-29T07:58:08;31.30;99.90
17774;DHT22;9011;33.236;-97.118;2022-07-29T08:00:37;31.10;99.90
17774;DHT22;9011;33.236;-97.118;2022-07-29T08:03:05;31.20;99.90
17774;DHT22;9011;33.236;-97.118;2022-07-29T08:05:35;31.10;99.90
17774;DHT22;9011;33.236;-97.118;2022-07-29T08:08:04;31.20;99.90
17774;DHT22;9011;33.236;-97.118;2022-07-29T08:10:33;31.20;99.90
17774;DHT22;9011;33.236;-97.118;2022-07-29T08:13:20;31.10;99.90
17774;DHT22;9011;33.236;-97.118;2022-07-29T08:15:48;31.00;99.90
17774;DHT22;9011;33.236;-97.118;2022-07-29T08:18:23;31.00;99.90
17774;DHT22;9011;33.236;-97.118;2022-07-29T08:20:53;31.10;99.90
17774;DHT22;9011;33.236;-97.118;2022-07-29T08:23:22;31.10;99.90
17774;DHT22;9011;33.236;-97.118;2022-07-29T08:25:50;31.10;99.90
17774;DHT22;9011;33.236;-97.118;2022-07-29T08:28:18;31.10;99.90
17774;DHT22;9011;33.236;-97.118;2022-07-29T08:30:47;31.10;99.90
17774;DHT22;9011;33.236;-97.118;2022-07-29T08:33:15;31.00;99.90
17774;DHT22;9011;33.236;-97.118;2022-07-29T08:35:44;31.00;99.90
17774;DHT22;9011;33.236;-97.118;2022-07-29T08:38:14;31.00;99.90
17774;DHT22;9011;33.236;-97.118;2022-07-29T08:40:42;31.00;99.90
17774;DHT22;9011;33.236;-97.118;2022-07-29T08:43:10;30.90;99.90
17774;DHT22;9011;33.236;-97.118;2022-07-29T08:45:43;31.00;99.90
17774;DHT22;9011;33.236;-97.118;2022-07-29T08:48:12;31.00;99.90
17774;DHT22;9011;33.236;-97.118;2022-07-29T08:50:42;31.00;99.90
17774;DHT22;9011;33.236;-97.118;2022-07-29T08:53:13;30.90;99.90
17774;DHT22;9011;33.236;-97.118;2022-07-29T08:55:43;30.90;99.90
17774;DHT22;9011;33.236;-97.118;2022-07-29T08:58:12;30.90;99.90
17774;DHT22;9011;33.236;-97.118;2022-07-29T09:00:42;30.90;99.90
17774;DHT22;9011;33.236;-97.118;2022-07-29T09:03:14;30.80;99.90
17774;DHT22;9011;33.236;-97.118;2022-07-29T09:05:43;30.80;99.90
17774;DHT22;9011;33.236;-97.118;2022-07-29T09:08:14;30.90;99.90
17774;DHT22;9011;33.236;-97.118;2022-07-29T09:10:43;30.80;99.90
17774;DHT22;9011;33.236;-97.118;2022-07-29T09:13:12;30.80;99.90
17774;DHT22;9011;33.236;-97.118;2022-07-29T09:15:40;30.70;99.90
17774;DHT22;9011;33.236;-97.118;2022-07-29T09:18:08;30.70;99.90
17774;DHT22;9011;33.236;-97.118;2022-07-29T09:20:37;30.50;99.90
17774;DHT22;9011;33.236;-97.118;2022-07-29T09:23:24;30.60;99.90
17774;DHT22;9011;33.236;-97.118;2022-07-29T09:25:52;30.60;99.90
17774;DHT22;9011;33.236;-97.118;2022-07-29T09:28:20;30.40;99.90
17774;DHT22;9011;33.236;-97.118;2022-07-29T09:30:54;30.60;99.90
17774;DHT22;9011;33.236;-97.118;2022-07-29T09:33:23;30.40;99.90
17774;DHT22;9011;33.236;-97.118;2022-07-29T09:35:59;30.50;99.90
17774;DHT22;9011;33.236;-97.118;2022-07-29T09:38:32;30.60;99.90
17774;DHT22;9011;33.236;-97.118;2022-07-29T09:41:04;30.40;99.90
17774;DHT22;9011;33.236;-97.118;2022-07-29T09:43:34;30.50;99.90
17774;DHT22;9011;33.236;-97.118;2022-07-29T09:46:10;30.40;99.90
17774;DHT22;9011;33.236;-97.118;2022-07-29T09:48:39;30.40;99.90
17774;DHT22;9011;33.236;-97.118;2022-07-29T09:51:17;30.40;99.90
17774;DHT22;9011;33.236;-97.118;2022-07-29T09:53:48;30.40;99.90
17774;DHT22;9011;33.236;-97.118;2022-07-29T09:56:16;30.40;99.90
17774;DHT22;9011;33.236;-97.118;2022-07-29T09:58:44;30.30;99.90
17774;DHT22;9011;33.236;-97.118;2022-07-29T10:01:13;30.30;99.90
17774;DHT22;9011;33.236;-97.118;2022-07-29T10:03:51;30.30;99.90
17774;DHT22;9011;33.236;-97.118;2022-07-29T10:06:19;30.20;99.90
17774;DHT22;9011;33.236;-97.118;2022-07-29T10:08:49;30.10;99.90
17774;DHT22;9011;33.236;-97.118;2022-07-29T10:11:19;30.10;99.90
17774;DHT22;9011;33.236;-97.118;2022-07-29T10:13:48;30.20;99.90
17774;DHT22;9011;33.236;-97.118;2022-07-29T10:16:17;30.20;99.90
17774;DHT22;9011;33.236;-97.118;2022-07-29T10:18:45;30.10;99.90
17774;DHT22;9011;33.236;-97.118;2022-07-29T10:21:13;30.10;99.90
17774;DHT22;9011;33.236;-97.118;2022-07-29T10:23:43;30.20;99.90
17774;DHT22;9011;33.236;-97.118;2022-07-29T10:26:13;30.20;99.90
17774;DHT22;9011;33.236;-97.118;2022-07-29T10:28:42;30.00;99.90
17774;DHT22;9011;33.236;-97.118;2022-07-29T10:31:23;30.10;99.90
17774;DHT22;9011;33.236;-97.118;2022-07-29T10:34:02;30.00;99.90
17774;DHT22;9011;33.236;-97.118;2022-07-29T10:36:42;29.80;99.90
17774;DHT22;9011;33.236;-97.118;2022-07-29T10:39:22;29.70;99.90
17774;DHT22;9011;33.236;-97.118;2022-07-29T10:42:05;29.80;99.90
17774;DHT22;9011;33.236;-97.118;2022-07-29T10:44:40;29.90;99.90
17774;DHT22;9011;33.236;-97.118;2022-07-29T10:47:11;29.80;99.90
17774;DHT22;9011;33.236;-97.118;2022-07-29T10:49:58;29.90;99.90
17774;DHT22;9011;33.236;-97.118;2022-07-29T10:52:54;29.90;99.90
17774;DHT22;9011;33.236;-97.118;2022-07-29T10:55:41;29.90;99.90
17774;DHT22;9011;33.236;-97.118;2022-07-29T10:58:15;29.90;99.90
17774;DHT22;9011;33.236;-97.118;2022-07-29T11:00:45;29.80;99.90
17774;DHT22;9011;33.236;-97.118;2022-07-29T11:03:45;29.90;99.90
17774;DHT22;9011;33.236;-97.118;2022-07-29T11:06:14;29.80;99.90
17774;DHT22;9011;33.236;-97.118;2022-07-29T11:08:43;29.70;99.90
17774;DHT22;9011;33.236;-97.118;2022-07-29T11:11:35;29.50;99.90
17774;DHT22;9011;33.236;-97.118;2022-07-29T11:14:08;29.60;99.90
17774;DHT22;9011;33.236;-97.118;2022-07-29T11:17:02;29.60;99.90
17774;DHT22;9011;33.236;-97.118;2022-07-29T11:19:31;29.60;99.90
17774;DHT22;9011;33.236;-97.118;2022-07-29T11:21:59;29.60;99.90
17774;DHT22;9011;33.236;-97.118;2022-07-29T11:24:28;29.60;99.90
17774;DHT22;9011;33.236;-97.118;2022-07-29T11:27:17;29.60;99.90
17774;DHT22;9011;33.236;-97.118;2022-07-29T11:29:53;29.50;99.90
17774;DHT22;9011;33.236;-97.118;2022-07-29T11:32:22;29.30;99.90
17774;DHT22;9011;33.236;-97.118;2022-07-29T11:35:13;29.40;99.90
17774;DHT22;9011;33.236;-97.118;2022-07-29T11:37:41;29.40;99.90
17774;DHT22;9011;33.236;-97.118;2022-07-29T11:40:17;29.50;99.90
17774;DHT22;9011;33.236;-97.118;2022-07-29T11:42:50;29.40;99.90
17774;DHT22;9011;33.236;-97.118;2022-07-29T11:45:24;29.40;99.90
17774;DHT22;9011;33.236;-97.118;2022-07-29T11:47:59;29.30;99.90
17774;DHT22;9011;33.236;-97.118;2022-07-29T11:50:32;29.40;99.90
17774;DHT22;9011;33.236;-97.118;2022-07-29T11:53:02;29.40;99.90
17774;DHT22;9011;33.236;-97.118;2022-07-29T11:55:31;29.40;99.90
17774;DHT22;9011;33.236;-97.118;2022-07-29T11:58:02;29.30;99.90
17774;DHT22;9011;33.236;-97.118;2022-07-29T12:00:34;29.30;99.90
17774;DHT22;9011;33.236;-97.118;2022-07-29T12:03:05;29.30;99.90
17774;DHT22;9011;33.236;-97.118;2022-07-29T12:05:39;29.30;99.90
17774;DHT22;9011;33.236;-97.118;2022-07-29T12:08:13;29.20;99.90
17774;DHT22;9011;33.236;-97.118;2022-07-29T12:10:42;29.20;99.90
17774;DHT22;9011;33.236;-97.118;2022-07-29T12:13:13;29.20;99.90
17774;DHT22;9011;33.236;-97.118;2022-07-29T12:15:51;29.20;99.90
17774;DHT22;9011;33.236;-97.118;2022-07-29T12:18:20;29.30;99.90
17774;DHT22;9011;33.236;-97.118;2022-07-29T12:20:49;29.30;99.90
17774;DHT22;9011;33.236;-97.118;2022-07-29T12:23:24;29.20;99.90
17774;DHT22;9011;33.236;-97.118;2022-07-29T12:25:52;29.20;99.90
17774;DHT22;9011;33.236;-97.118;2022-07-29T12:28:21;29.30;99.90
17774;DHT22;9011;33.236;-97.118;2022-07-29T12:30:52;29.10;99.90
17774;DHT22;9011;33.236;-97.118;2022-07-29T12:33:22;29.10;99.90
17774;DHT22;9011;33.236;-97.118;2022-07-29T12:35:52;29.20;99.90
17774;DHT22;9011;33.236;-97.118;2022-07-29T12:38:21;29.10;99.90
17774;DHT22;9011;33.236;-97.118;2022-07-29T12:40:51;29.20;99.90
17774;DHT22;9011;33.236;-97.118;2022-07-29T12:43:21;29.30;99.90
17774;DHT22;9011;33.236;-97.118;2022-07-29T12:45:53;29.30;99.90
17774;DHT22;9011;33.236;-97.118;2022-07-29T12:48:34;29.30;99.90
17774;DHT22;9011;33.236;-97.118;2022-07-29T12:51:04;29.20;99.90
17774;DHT22;9011;33.236;-97.118;2022-07-29T12:53:34;29.20;99.90
17774;DHT22;9011;33.236;-97.118;2022-07-29T12:56:04;29.30;99.90
17774;DHT22;9011;33.236;-97.118;2022-07-29T12:58:35;29.40;99.90
17774;DHT22;9011;33.236;-97.118;2022-07-29T13:01:10;29.50;99.90
17774;DHT22;9011;33.236;-97.118;2022-07-29T13:03:47;29.60;99.90
17774;DHT22;9011;33.236;-97.118;2022-07-29T13:06:33;29.70;99.90
17774;DHT22;9011;33.236;-97.118;2022-07-29T13:09:08;29.70;99.90
17774;DHT22;9011;33.236;-97.118;2022-07-29T13:11:38;29.60;99.90
17774;DHT22;9011;33.236;-97.118;2022-07-29T13:14:09;29.70;99.90
17774;DHT22;9011;33.236;-97.118;2022-07-29T13:17:01;29.80;99.90
17774;DHT22;9011;33.236;-97.118;2022-07-29T13:19:37;29.70;99.90
17774;DHT22;9011;33.236;-97.118;2022-07-29T13:22:06;29.70;99.90
17774;DHT22;9011;33.236;-97.118;2022-07-29T13:24:46;29.80;99.90
17774;DHT22;9011;33.236;-97.118;2022-07-29T13:27:15;29.90;99.90
17774;DHT22;9011;33.236;-97.118;2022-07-29T13:29:44;30.00;99.90
17774;DHT22;9011;33.236;-97.118;2022-07-29T13:32:14;30.10;99.90
17774;DHT22;9011;33.236;-97.118;2022-07-29T13:34:43;30.20;99.90
17774;DHT22;9011;33.236;-97.118;2022-07-29T13:37:11;30.10;99.90
17774;DHT22;9011;33.236;-97.118;2022-07-29T13:39:39;30.30;99.90
17774;DHT22;9011;33.236;-97.118;2022-07-29T13:42:08;30.30;99.90
17774;DHT22;9011;33.236;-97.118;2022-07-29T13:44:36;30.40;99.90
17774;DHT22;9011;33.236;-97.118;2022-07-29T13:47:05;30.40;99.90
17774;DHT22;9011;33.236;-97.118;2022-07-29T13:49:35;30.50;99.90
17774;DHT22;9011;33.236;-97.118;2022-07-29T13:52:03;30.70;99.90
17774;DHT22;9011;33.236;-97.118;2022-07-29T13:54:33;30.80;99.90
17774;DHT22;9011;33.236;-97.118;2022-07-29T13:57:03;31.00;99.90
17774;DHT22;9011;33.236;-97.118;2022-07-29T13:59:32;30.90;99.90
17774;DHT22;9011;33.236;-97.118;2022-07-29T14:02:00;30.90;99.90
17774;DHT22;9011;33.236;-97.118;2022-07-29T14:04:29;31.10;99.90
17774;DHT22;9011;33.236;-97.118;2022-07-29T14:06:59;31.40;99.90
17774;DHT22;9011;33.236;-97.118;2022-07-29T14:09:27;31.50;99.90
17774;DHT22;9011;33.236;-97.118;2022-07-29T14:11:55;31.70;99.90
17774;DHT22;9011;33.236;-97.118;2022-07-29T14:14:24;31.80;99.90
17774;DHT22;9011;33.236;-97.118;2022-07-29T14:16:52;31.70;99.90
17774;DHT22;9011;33.236;-97.118;2022-07-29T14:19:20;31.90;99.90
17774;DHT22;9011;33.236;-97.118;2022-07-29T14:21:48;32.10;99.90
17774;DHT22;9011;33.236;-97.118;2022-07-29T14:24:18;32.40;99.90
17774;DHT22;9011;33.236;-97.118;2022-07-29T14:26:47;32.50;99.90
17774;DHT22;9011;33.236;-97.118;2022-07-29T14:29:15;32.80;99.90
17774;DHT22;9011;33.236;-97.118;2022-07-29T14:31:43;32.90;99.90
17774;DHT22;9011;33.236;-97.118;2022-07-29T14:34:11;33.00;99.90
17774;DHT22;9011;33.236;-97.118;2022-07-29T14:36:41;32.80;99.90
17774;DHT22;9011;33.236;-97.118;2022-07-29T14:39:10;33.00;99.90
17774;DHT22;9011;33.236;-97.118;2022-07-29T14:41:40;33.10;99.90
17774;DHT22;9011;33.236;-97.118;2022-07-29T14:44:09;33.10;99.90
17774;DHT22;9011;33.236;-97.118;2022-07-29T14:46:37;33.30;99.90
17774;DHT22;9011;33.236;-97.118;2022-07-29T14:49:06;33.50;99.90
17774;DHT22;9011;33.236;-97.118;2022-07-29T14:51:34;33.70;99.90
17774;DHT22;9011;33.236;-97.118;2022-07-29T14:54:02;33.80;99.90
17774;DHT22;9011;33.236;-97.118;2022-07-29T14:56:31;33.80;99.90
17774;DHT22;9011;33.236;-97.118;2022-07-29T14:59:00;33.80;99.90
17774;DHT22;9011;33.236;-97.118;2022-07-29T15:01:29;34.00;99.90
17774;DHT22;9011;33.236;-97.118;2022-07-29T15:03:57;33.70;99.90
17774;DHT22;9011;33.236;-97.118;2022-07-29T15:06:26;33.70;99.90
17774;DHT22;9011;33.236;-97.118;2022-07-29T15:08:54;33.50;99.90
17774;DHT22;9011;33.236;-97.118;2022-07-29T15:11:22;34.00;99.90
17774;DHT22;9011;33.236;-97.118;2022-07-29T15:13:51;34.10;99.90
17774;DHT22;9011;33.236;-97.118;2022-07-29T15:16:21;34.30;99.90
17774;DHT22;9011;33.236;-97.118;2022-07-29T15:18:50;34.60;99.90
17774;DHT22;9011;33.236;-97.118;2022-07-29T15:21:18;34.80;99.90
17774;DHT22;9011;33.236;-97.118;2022-07-29T15:23:47;35.00;99.90
17774;DHT22;9011;33.236;-97.118;2022-07-29T15:26:15;35.10;99.90
17774;DHT22;9011;33.236;-97.118;2022-07-29T15:28:44;34.80;99.90
17774;DHT22;9011;33.236;-97.118;2022-07-29T15:31:12;34.90;99.90
17774;DHT22;9011;33.236;-97.118;2022-07-29T15:33:42;35.30;99.90
17774;DHT22;9011;33.236;-97.118;2022-07-29T15:36:10;35.50;99.90
17774;DHT22;9011;33.236;-97.118;2022-07-29T15:38:39;35.50;99.90
17774;DHT22;9011;33.236;-97.118;2022-07-29T15:41:07;35.30;99.90
17774;DHT22;9011;33.236;-97.118;2022-07-29T15:43:36;35.30;99.90